sensor_id;sensor_type;location;lat;lon;timestamp;temperature;humidity
4183;DHT22;2105;52.300;9.182;2022-08-21T00:01:45;15.70;1.00
4183;DHT22;2105;52.300;9.182;2022-08-21T00:04:12;15.60;1.00
4183;DHT22;2105;52.300;9.182;2022-08-21T00:06:38;15.60;1.00
4183;DHT22;2105;52.300;9.182;2022-08-21T00:09:08;15.70;1.00
4183;DHT22;2105;52.300;9.182;2022-08-21T00:11:36;15.70;1.00
4183;DHT22;2105;52.300;9.182;2022-08-21T00:14:03;15.80;99.90
4183;DHT22;2105;52.300;9.182;2022-08-21T00:16:31;15.70;99.90
4183;DHT22;2105;52.300;9.182;2022-08-21T00:18:58;15.80;95.20
4183;DHT22;2105;52.300;9.182;2022-08-21T00:21:25;15.80;1.00
4183;DHT22;2105;52.300;9.182;2022-08-21T00:23:52;15.60;99.90
4183;DHT22;2105;52.300;9.182;2022-08-21T00:26:20;15.60;1.00
4183;DHT22;2105;52.300;9.182;2022-08-21T00:28:46;15.60;99.90
4183;DHT22;2105;52.300;9.182;2022-08-21T00:31:14;15.60;99.90
4183;DHT22;2105;52.300;9.182;2022-08-21T00:33:41;15.50;1.00
4183;DHT22;2105;52.300;9.182;2022-08-21T00:36:08;15.50;99.90
4183;DHT22;2105;52.300;9.182;2022-08-21T00:38:35;15.50;99.90
4183;DHT22;2105;52.300;9.182;2022-08-21T00:41:04;15.40;99.90
4183;DHT22;2105;52.300;9.182;2022-08-21T00:43:35;15.40;99.90
4183;DHT22;2105;52.300;9.182;2022-08-21T00:46:03;15.40;99.90
4183;DHT22;2105;52.300;9.182;2022-08-21T00:48:32;15.40;1.00
4183;DHT22;2105;52.300;9.182;2022-08-21T00:51:03;15.30;1.00
4183;DHT22;2105;52.300;9.182;2022-08-21T00:53:31;15.10;99.90
4183;DHT22;2105;52.300;9.182;2022-08-21T00:56:00;15.00;1.00
4183;DHT22;2105;52.300;9.182;2022-08-21T00:58:29;15.10;1.00
4183;DHT22;2105;52.300;9.182;2022-08-21T01:01:00;15.10;1.00
4183;DHT22;2105;52.300;9.182;2022-08-21T01:03:27;15.10;1.00
4183;DHT22;2105;52.300;9.182;2022-08-21T01:05:54;15.10;99.90
4183;DHT22;2105;52.300;9.182;2022-08-21T01:08:21;15.10;1.00
4183;DHT22;2105;52.300;9.182;2022-08-21T01:10:49;15.10;99.90
4183;DHT22;2105;52.300;9.182;2022-08-21T01:13:17;15.10;1.00
4183;DHT22;2105;52.300;9.182;2022-08-21T01:15:47;15.10;99.90
4183;DHT22;2105;52.300;9.182;2022-08-21T01:18:17;15.10;99.90
4183;DHT22;2105;52.300;9.182;2022-08-21T01:20:57;15.00;1.00
4183;DHT22;2105;52.300;9.182;2022-08-21T01:23:24;14.90;99.90
4183;DHT22;2105;52.300;9.182;2022-08-21T01:25:51;14.90;1.00
4183;DHT22;2105;52.300;9.182;2022-08-21T01:28:18;14.90;1.00
4183;DHT22;2105;52.300;9.182;2022-08-21T01:30:45;15.00;1.00
4183;DHT22;2105;52.300;9.182;2022-08-21T01:33:12;15.00;1.00
4183;DHT22;2105;52.300;9.182;2022-08-21T01:35:39;15.00;1.00
4183;DHT22;2105;52.300;9.182;2022-08-21T01:38:07;15.10;99.90
4183;DHT22;2105;52.300;9.182;2022-08-21T01:40:34;15.00;99.90
4183;DHT22;2105;52.300;9.182;2022-08-21T01:43:01;15.00;1.00
4183;DHT22;2105;52.300;9.182;2022-08-21T01:45:28;15.00;99.90
4183;DHT22;2105;52.300;9.182;2022-08-21T01:47:55;14.90;1.00
4183;DHT22;2105;52.300;9.182;2022-08-21T01:50:22;14.80;1.00
4183;DHT22;2105;52.300;9.182;2022-08-21T01:52:50;14.80;99.90
4183;DHT22;2105;52.300;9.182;2022-08-21T01:55:20;14.80;1.00
4183;DHT22;2105;52.300;9.182;2022-08-21T01:57:47;14.80;1.00
4183;DHT22;2105;52.300;9.182;2022-08-21T02:00:17;14.80;99.90
4183;DHT22;2105;52.300;9.182;2022-08-21T02:02:44;14.80;1.00
4183;DHT22;2105;52.300;9.182;2022-08-21T02:05:12;14.90;1.00
4183;DHT22;2105;52.300;9.182;2022-08-21T02:07:41;14.90;1.00
4183;DHT22;2105;52.300;9.182;2022-08-21T02:10:09;15.00;1.00
4183;DHT22;2105;52.300;9.182;2022-08-21T02:12:39;15.00;1.00
4183;DHT22;2105;52.300;9.182;2022-08-21T02:15:06;15.10;99.90
4183;DHT22;2105;52.300;9.182;2022-08-21T02:17:39;15.10;99.90
4183;DHT22;2105;52.300;9.182;2022-08-21T02:20:07;15.20;99.90
4183;DHT22;2105;52.300;9.182;2022-08-21T02:22:34;15.30;66.50
4183;DHT22;2105;52.300;9.182;2022-08-21T02:25:00;15.30;99.90
4183;DHT22;2105;52.300;9.182;2022-08-21T02:27:27;15.00;68.90
4183;DHT22;2105;52.300;9.182;2022-08-21T02:29:57;14.90;99.90
4183;DHT22;2105;52.300;9.182;2022-08-21T02:32:24;14.80;1.00
4183;DHT22;2105;52.300;9.182;2022-08-21T02:34:51;14.80;39.70
4183;DHT22;2105;52.300;9.182;2022-08-21T02:37:17;14.90;1.00
4183;DHT22;2105;52.300;9.182;2022-08-21T02:39:44;15.00;1.00
4183;DHT22;2105;52.300;9.182;2022-08-21T02:42:11;15.10;1.00
4183;DHT22;2105;52.300;9.182;2022-08-21T02:44:37;15.00;99.90
4183;DHT22;2105;52.300;9.182;2022-08-21T02:47:05;14.90;99.90
4183;DHT22;2105;52.300;9.182;2022-08-21T02:49:32;14.90;1.00
4183;DHT22;2105;52.300;9.182;2022-08-21T02:51:59;14.90;99.90
4183;DHT22;2105;52.300;9.182;2022-08-21T02:54:25;14.90;99.90
4183;DHT22;2105;52.300;9.182;2022-08-21T02:56:52;15.00;75.90
4183;DHT22;2105;52.300;9.182;2022-08-21T02:59:19;15.00;9.10
4183;DHT22;2105;52.300;9.182;2022-08-21T03:01:45;15.00;1.00
4183;DHT22;2105;52.300;9.182;2022-08-21T03:04:13;14.90;1.00
4183;DHT22;2105;52.300;9.182;2022-08-21T03:06:40;14.90;1.00
4183;DHT22;2105;52.300;9.182;2022-08-21T03:09:07;14.90;99.90
4183;DHT22;2105;52.300;9.182;2022-08-21T03:11:33;14.90;55.00
4183;DHT22;2105;52.300;9.182;2022-08-21T03:14:02;15.00;1.00
4183;DHT22;2105;52.300;9.182;2022-08-21T03:16:30;14.90;1.00
4183;DHT22;2105;52.300;9.182;2022-08-21T03:18:57;14.90;1.00
4183;DHT22;2105;52.300;9.182;2022-08-21T03:21:26;14.90;1.00
4183;DHT22;2105;52.300;9.182;2022-08-21T03:23:52;14.80;1.00
4183;DHT22;2105;52.300;9.182;2022-08-21T03:26:19;14.70;99.90
4183;DHT22;2105;52.300;9.182;2022-08-21T03:28:46;14.70;1.00
4183;DHT22;2105;52.300;9.182;2022-08-21T03:31:13;14.70;16.10
4183;DHT22;2105;52.300;9.182;2022-08-21T03:33:39;14.60;43.00
4183;DHT22;2105;52.300;9.182;2022-08-21T03:36:07;14.60;99.90
4183;DHT22;2105;52.300;9.182;2022-08-21T03:38:36;14.70;99.90
4183;DHT22;2105;52.300;9.182;2022-08-21T03:41:07;14.80;99.90
4183;DHT22;2105;52.300;9.182;2022-08-21T03:43:33;14.90;99.90
4183;DHT22;2105;52.300;9.182;2022-08-21T03:46:00;15.00;99.90
4183;DHT22;2105;52.300;9.182;2022-08-21T03:48:28;15.00;99.90
4183;DHT22;2105;52.300;9.182;2022-08-21T03:50:55;15.20;99.90
4183;DHT22;2105;52.300;9.182;2022-08-21T03:53:22;15.30;99.90
4183;DHT22;2105;52.300;9.182;2022-08-21T03:55:50;15.40;55.30
4183;DHT22;2105;52.300;9.182;2022-08-21T03:58:20;15.50;1.00
4183;DHT22;2105;52.300;9.182;2022-08-21T04:00:50;15.50;1.00
4183;DHT22;2105;52.300;9.182;2022-08-21T04:03:18;15.50;1.00
4183;DHT22;2105;52.300;9.182;2022-08-21T04:05:45;15.60;1.00
4183;DHT22;2105;52.300;9.182;2022-08-21T04:08:13;15.60;3.20
4183;DHT22;2105;52.300;9.182;2022-08-21T04:10:40;15.70;99.90
4183;DHT22;2105;52.300;9.182;2022-08-21T04:13:09;15.70;98.60
4183;DHT22;2105;52.300;9.182;2022-08-21T04:15:36;15.80;1.00
4183;DHT22;2105;52.300;9.182;2022-08-21T04:18:04;15.90;1.00
4183;DHT22;2105;52.300;9.182;2022-08-21T04:20:31;15.90;1.00
4183;DHT22;2105;52.300;9.182;2022-08-21T04:22:57;15.80;99.90
4183;DHT22;2105;52.300;9.182;2022-08-21T04:25:24;15.60;99.90
4183;DHT22;2105;52.300;9.182;2022-08-21T04:27:51;15.60;1.00
4183;DHT22;2105;52.300;9.182;2022-08-21T04:30:20;15.50;99.90
4183;DHT22;2105;52.300;9.182;2022-08-21T04:32:49;15.50;99.90
4183;DHT22;2105;52.300;9.182;2022-08-21T04:35:17;15.40;1.00
4183;DHT22;2105;52.300;9.182;2022-08-21T04:37:44;15.20;1.00
4183;DHT22;2105;52.300;9.182;2022-08-21T04:40:14;15.10;1.90
4183;DHT22;2105;52.300;9.182;2022-08-21T04:42:43;14.90;11.40
4183;DHT22;2105;52.300;9.182;2022-08-21T04:45:16;14.80;99.90
4183;DHT22;2105;52.300;9.182;2022-08-21T04:47:47;14.90;99.90
4183;DHT22;2105;52.300;9.182;2022-08-21T04:50:14;14.90;99.90
4183;DHT22;2105;52.300;9.182;2022-08-21T04:52:41;15.00;99.90
4183;DHT22;2105;52.300;9.182;2022-08-21T04:55:07;15.10;99.90
4183;DHT22;2105;52.300;9.182;2022-08-21T04:57:35;15.20;99.90
4183;DHT22;2105;52.300;9.182;2022-08-21T05:00:04;15.20;99.90
4183;DHT22;2105;52.300;9.182;2022-08-21T05:02:31;15.20;99.90
4183;DHT22;2105;52.300;9.182;2022-08-21T05:05:00;15.20;99.90
4183;DHT22;2105;52.300;9.182;2022-08-21T05:07:29;15.40;99.90
4183;DHT22;2105;52.300;9.182;2022-08-21T05:09:56;15.60;99.90
4183;DHT22;2105;52.300;9.182;2022-08-21T05:12:23;15.80;1.00
4183;DHT22;2105;52.300;9.182;2022-08-21T05:14:50;15.90;1.00
4183;DHT22;2105;52.300;9.182;2022-08-21T05:17:17;16.00;1.00
4183;DHT22;2105;52.300;9.182;2022-08-21T05:19:43;16.10;99.90
4183;DHT22;2105;52.300;9.182;2022-08-21T05:22:19;16.20;58.30
4183;DHT22;2105;52.300;9.182;2022-08-21T05:24:45;16.30;18.90
4183;DHT22;2105;52.300;9.182;2022-08-21T05:27:12;16.50;61.40
4183;DHT22;2105;52.300;9.182;2022-08-21T05:29:38;16.70;1.00
4183;DHT22;2105;52.300;9.182;2022-08-21T05:32:09;16.70;99.90
4183;DHT22;2105;52.300;9.182;2022-08-21T05:34:36;16.80;99.90
4183;DHT22;2105;52.300;9.182;2022-08-21T05:37:02;17.10;99.90
4183;DHT22;2105;52.300;9.182;2022-08-21T05:39:31;17.40;1.00
4183;DHT22;2105;52.300;9.182;2022-08-21T05:41:58;17.60;99.90
4183;DHT22;2105;52.300;9.182;2022-08-21T05:44:24;17.70;99.90
4183;DHT22;2105;52.300;9.182;2022-08-21T05:46:51;17.80;99.90
4183;DHT22;2105;52.300;9.182;2022-08-21T05:49:18;17.90;1.00
4183;DHT22;2105;52.300;9.182;2022-08-21T05:51:44;18.00;1.00
4183;DHT22;2105;52.300;9.182;2022-08-21T05:54:11;18.00;1.00
4183;DHT22;2105;52.300;9.182;2022-08-21T05:56:39;18.10;1.00
4183;DHT22;2105;52.300;9.182;2022-08-21T05:59:10;18.10;1.00
4183;DHT22;2105;52.300;9.182;2022-08-21T06:01:36;18.20;99.90
4183;DHT22;2105;52.300;9.182;2022-08-21T06:04:03;18.20;99.90
4183;DHT22;2105;52.300;9.182;2022-08-21T06:06:30;18.20;99.90
4183;DHT22;2105;52.300;9.182;2022-08-21T06:08:56;18.20;99.90
4183;DHT22;2105;52.300;9.182;2022-08-21T06:11:23;18.30;99.90
4183;DHT22;2105;52.300;9.182;2022-08-21T06:13:51;18.30;99.90
4183;DHT22;2105;52.300;9.182;2022-08-21T06:16:18;18.30;99.90
4183;DHT22;2105;52.300;9.182;2022-08-21T06:18:45;18.30;1.00
4183;DHT22;2105;52.300;9.182;2022-08-21T06:21:12;18.30;33.80
4183;DHT22;2105;52.300;9.182;2022-08-21T06:23:38;18.30;99.90
4183;DHT22;2105;52.300;9.182;2022-08-21T06:26:07;18.40;31.60
4183;DHT22;2105;52.300;9.182;2022-08-21T06:28:34;18.50;99.90
4183;DHT22;2105;52.300;9.182;2022-08-21T06:31:11;18.50;1.00
4183;DHT22;2105;52.300;9.182;2022-08-21T06:33:37;18.60;1.00
4183;DHT22;2105;52.300;9.182;2022-08-21T06:36:04;18.90;1.00
4183;DHT22;2105;52.300;9.182;2022-08-21T06:38:31;19.20;99.90
4183;DHT22;2105;52.300;9.182;2022-08-21T06:40:58;19.40;99.90
4183;DHT22;2105;52.300;9.182;2022-08-21T06:43:24;19.60;99.90
4183;DHT22;2105;52.300;9.182;2022-08-21T06:45:51;19.60;59.10
4183;DHT22;2105;52.300;9.182;2022-08-21T06:48:19;19.60;67.30
4183;DHT22;2105;52.300;9.182;2022-08-21T06:50:47;19.90;1.00
4183;DHT22;2105;52.300;9.182;2022-08-21T06:53:16;20.60;1.00
4183;DHT22;2105;52.300;9.182;2022-08-21T06:55:43;21.20;99.90
4183;DHT22;2105;52.300;9.182;2022-08-21T06:58:10;22.00;1.00
4183;DHT22;2105;52.300;9.182;2022-08-21T07:00:39;22.60;1.00
4183;DHT22;2105;52.300;9.182;2022-08-21T07:03:06;23.50;99.90
4183;DHT22;2105;52.300;9.182;2022-08-21T07:05:34;24.10;99.90
4183;DHT22;2105;52.300;9.182;2022-08-21T07:08:01;25.00;99.90
4183;DHT22;2105;52.300;9.182;2022-08-21T07:10:28;25.60;99.90
4183;DHT22;2105;52.300;9.182;2022-08-21T07:12:55;26.30;99.90
4183;DHT22;2105;52.300;9.182;2022-08-21T07:15:22;26.20;99.90
4183;DHT22;2105;52.300;9.182;2022-08-21T07:17:48;26.70;96.90
4183;DHT22;2105;52.300;9.182;2022-08-21T07:20:15;26.50;78.30
4183;DHT22;2105;52.300;9.182;2022-08-21T07:22:43;26.70;50.90
4183;DHT22;2105;52.300;9.182;2022-08-21T07:25:10;26.80;24.60
4183;DHT22;2105;52.300;9.182;2022-08-21T07:27:37;26.60;47.40
4183;DHT22;2105;52.300;9.182;2022-08-21T07:30:05;26.90;47.40
4183;DHT22;2105;52.300;9.182;2022-08-21T07:32:32;27.30;13.40
4183;DHT22;2105;52.300;9.182;2022-08-21T07:34:58;27.00;11.20
4183;DHT22;2105;52.300;9.182;2022-08-21T07:37:25;27.20;27.40
4183;DHT22;2105;52.300;9.182;2022-08-21T07:39:53;28.00;1.00
4183;DHT22;2105;52.300;9.182;2022-08-21T07:42:19;27.40;1.00
4183;DHT22;2105;52.300;9.182;2022-08-21T07:44:46;27.50;1.00
4183;DHT22;2105;52.300;9.182;2022-08-21T07:47:13;26.90;1.00
4183;DHT22;2105;52.300;9.182;2022-08-21T07:49:39;26.50;4.40
4183;DHT22;2105;52.300;9.182;2022-08-21T07:52:06;26.70;18.30
4183;DHT22;2105;52.300;9.182;2022-08-21T07:54:33;27.30;7.20
4183;DHT22;2105;52.300;9.182;2022-08-21T07:57:01;27.40;1.00
4183;DHT22;2105;52.300;9.182;2022-08-21T07:59:28;27.00;1.00
4183;DHT22;2105;52.300;9.182;2022-08-21T08:01:55;26.60;16.80
4183;DHT22;2105;52.300;9.182;2022-08-21T08:04:21;26.50;25.20
4183;DHT22;2105;52.300;9.182;2022-08-21T08:06:48;26.40;21.10
4183;DHT22;2105;52.300;9.182;2022-08-21T08:09:15;25.80;49.10
4183;DHT22;2105;52.300;9.182;2022-08-21T08:11:42;25.20;67.40
4183;DHT22;2105;52.300;9.182;2022-08-21T08:14:11;24.60;94.80
4183;DHT22;2105;52.300;9.182;2022-08-21T08:16:37;24.20;99.90
4183;DHT22;2105;52.300;9.182;2022-08-21T08:19:04;23.80;99.90
4183;DHT22;2105;52.300;9.182;2022-08-21T08:21:31;23.50;99.90
4183;DHT22;2105;52.300;9.182;2022-08-21T08:23:59;23.10;99.90
4183;DHT22;2105;52.300;9.182;2022-08-21T08:26:25;23.10;99.90
4183;DHT22;2105;52.300;9.182;2022-08-21T08:28:52;23.20;99.90
4183;DHT22;2105;52.300;9.182;2022-08-21T08:31:20;23.30;99.90
4183;DHT22;2105;52.300;9.182;2022-08-21T08:33:47;23.30;99.90
4183;DHT22;2105;52.300;9.182;2022-08-21T08:36:15;23.10;99.90
4183;DHT22;2105;52.300;9.182;2022-08-21T08:38:42;23.30;99.90
4183;DHT22;2105;52.300;9.182;2022-08-21T08:41:11;23.50;99.90
4183;DHT22;2105;52.300;9.182;2022-08-21T08:43:40;23.70;99.90
4183;DHT22;2105;52.300;9.182;2022-08-21T08:46:12;23.60;99.90
4183;DHT22;2105;52.300;9.182;2022-08-21T08:48:48;23.70;99.90
4183;DHT22;2105;52.300;9.182;2022-08-21T08:51:21;23.70;99.90
4183;DHT22;2105;52.300;9.182;2022-08-21T08:53:51;23.60;99.90
4183;DHT22;2105;52.300;9.182;2022-08-21T08:56:25;23.80;99.90
4183;DHT22;2105;52.300;9.182;2022-08-21T08:58:53;23.70;99.90
4183;DHT22;2105;52.300;9.182;2022-08-21T09:01:22;23.60;99.90
4183;DHT22;2105;52.300;9.182;2022-08-21T09:03:50;23.60;99.90
4183;DHT22;2105;52.300;9.182;2022-08-21T09:06:28;23.70;99.90
4183;DHT22;2105;52.300;9.182;2022-08-21T09:09:05;23.80;99.90
4183;DHT22;2105;52.300;9.182;2022-08-21T09:11:40;23.90;99.90
4183;DHT22;2105;52.300;9.182;2022-08-21T09:14:12;24.00;97.60
4183;DHT22;2105;52.300;9.182;2022-08-21T09:16:47;24.00;85.70
4183;DHT22;2105;52.300;9.182;2022-08-21T09:19:28;24.10;99.50
4183;DHT22;2105;52.300;9.182;2022-08-21T09:22:08;24.30;99.90
4183;DHT22;2105;52.300;9.182;2022-08-21T09:24:47;24.60;99.90
4183;DHT22;2105;52.300;9.182;2022-08-21T09:27:18;24.40;14.30
4183;DHT22;2105;52.300;9.182;2022-08-21T09:29:47;24.40;12.10
4183;DHT22;2105;52.300;9.182;2022-08-21T09:32:18;24.00;33.50
4183;DHT22;2105;52.300;9.182;2022-08-21T09:34:58;24.00;10.00
4183;DHT22;2105;52.300;9.182;2022-08-21T09:37:26;24.10;9.10
4183;DHT22;2105;52.300;9.182;2022-08-21T09:39:55;24.10;6.60
4183;DHT22;2105;52.300;9.182;2022-08-21T09:42:26;24.20;18.50
4183;DHT22;2105;52.300;9.182;2022-08-21T09:45:10;24.20;7.70
4183;DHT22;2105;52.300;9.182;2022-08-21T09:47:37;24.40;12.70
4183;DHT22;2105;52.300;9.182;2022-08-21T09:50:12;24.60;15.30
4183;DHT22;2105;52.300;9.182;2022-08-21T09:52:48;24.90;9.00
4183;DHT22;2105;52.300;9.182;2022-08-21T09:55:20;25.00;1.00
4183;DHT22;2105;52.300;9.182;2022-08-21T09:58:01;25.00;1.00
4183;DHT22;2105;52.300;9.182;2022-08-21T10:00:30;25.10;1.00
4183;DHT22;2105;52.300;9.182;2022-08-21T10:03:13;25.20;1.00
4183;DHT22;2105;52.300;9.182;2022-08-21T10:05:51;25.20;1.00
4183;DHT22;2105;52.300;9.182;2022-08-21T10:08:20;25.20;1.00
4183;DHT22;2105;52.300;9.182;2022-08-21T10:10:51;25.30;1.00
4183;DHT22;2105;52.300;9.182;2022-08-21T10:13:22;25.50;1.00
4183;DHT22;2105;52.300;9.182;2022-08-21T10:16:01;25.40;1.00
4183;DHT22;2105;52.300;9.182;2022-08-21T10:18:35;25.20;1.00
4183;DHT22;2105;52.300;9.182;2022-08-21T10:21:15;25.50;1.00
4183;DHT22;2105;52.300;9.182;2022-08-21T10:23:53;26.10;1.00
4183;DHT22;2105;52.300;9.182;2022-08-21T10:26:30;25.90;1.00
4183;DHT22;2105;52.300;9.182;2022-08-21T10:29:03;25.10;1.00
4183;DHT22;2105;52.300;9.182;2022-08-21T10:31:36;25.20;1.00
4183;DHT22;2105;52.300;9.182;2022-08-21T10:34:16;25.40;1.00
4183;DHT22;2105;52.300;9.182;2022-08-21T10:36:57;25.90;1.00
4183;DHT22;2105;52.300;9.182;2022-08-21T10:39:31;26.10;1.00
4183;DHT22;2105;52.300;9.182;2022-08-21T10:45:08;26.20;1.00
4183;DHT22;2105;52.300;9.182;2022-08-21T10:47:42;26.30;1.00
4183;DHT22;2105;52.300;9.182;2022-08-21T10:50:19;26.40;1.00
4183;DHT22;2105;52.300;9.182;2022-08-21T10:53:16;25.70;1.00
4183;DHT22;2105;52.300;9.182;2022-08-21T10:55:52;25.80;1.00
4183;DHT22;2105;52.300;9.182;2022-08-21T10:58:25;26.30;1.00
4183;DHT22;2105;52.300;9.182;2022-08-21T11:00:56;26.50;1.00
4183;DHT22;2105;52.300;9.182;2022-08-21T11:03:29;26.90;1.00
4183;DHT22;2105;52.300;9.182;2022-08-21T11:06:04;27.10;1.00
4183;DHT22;2105;52.300;9.182;2022-08-21T11:08:38;27.10;1.00
4183;DHT22;2105;52.300;9.182;2022-08-21T11:11:10;27.20;1.00
4183;DHT22;2105;52.300;9.182;2022-08-21T11:13:41;27.00;1.00
4183;DHT22;2105;52.300;9.182;2022-08-21T11:16:16;27.00;1.00
4183;DHT22;2105;52.300;9.182;2022-08-21T11:18:47;27.10;1.00
4183;DHT22;2105;52.300;9.182;2022-08-21T11:21:30;27.20;1.00
4183;DHT22;2105;52.300;9.182;2022-08-21T11:24:07;27.60;1.00
4183;DHT22;2105;52.300;9.182;2022-08-21T11:26:42;27.70;1.00
4183;DHT22;2105;52.300;9.182;2022-08-21T11:29:13;27.30;1.00
4183;DHT22;2105;52.300;9.182;2022-08-21T11:31:53;27.10;1.00
4183;DHT22;2105;52.300;9.182;2022-08-21T11:34:38;27.20;1.00
4183;DHT22;2105;52.300;9.182;2022-08-21T11:37:14;27.20;1.00
4183;DHT22;2105;52.300;9.182;2022-08-21T11:39:53;27.10;1.00
4183;DHT22;2105;52.300;9.182;2022-08-21T11:42:27;26.70;1.00
4183;DHT22;2105;52.300;9.182;2022-08-21T11:45:03;26.40;1.00
4183;DHT22;2105;52.300;9.182;2022-08-21T11:47:47;26.50;1.00
4183;DHT22;2105;52.300;9.182;2022-08-21T11:50:17;26.70;1.00
4183;DHT22;2105;52.300;9.182;2022-08-21T11:52:48;26.70;1.00
4183;DHT22;2105;52.300;9.182;2022-08-21T11:55:22;26.40;1.00
4183;DHT22;2105;52.300;9.182;2022-08-21T11:57:55;26.20;1.00
4183;DHT22;2105;52.300;9.182;2022-08-21T12:00:29;25.90;1.00
4183;DHT22;2105;52.300;9.182;2022-08-21T12:03:05;26.10;1.00
4183;DHT22;2105;52.300;9.182;2022-08-21T12:05:36;26.40;1.00
4183;DHT22;2105;52.300;9.182;2022-08-21T12:08:06;26.90;1.00
4183;DHT22;2105;52.300;9.182;2022-08-21T12:10:37;26.70;1.00
4183;DHT22;2105;52.300;9.182;2022-08-21T12:13:22;26.90;1.00
4183;DHT22;2105;52.300;9.182;2022-08-21T12:15:49;27.20;1.00
4183;DHT22;2105;52.300;9.182;2022-08-21T12:18:23;27.50;1.00
4183;DHT22;2105;52.300;9.182;2022-08-21T12:20:59;27.70;1.00
4183;DHT22;2105;52.300;9.182;2022-08-21T12:23:29;27.80;1.00
4183;DHT22;2105;52.300;9.182;2022-08-21T12:26:19;27.60;1.00
4183;DHT22;2105;52.300;9.182;2022-08-21T12:28:47;27.50;1.00
4183;DHT22;2105;52.300;9.182;2022-08-21T12:31:23;27.30;1.00
4183;DHT22;2105;52.300;9.182;2022-08-21T12:33:54;27.10;1.00
4183;DHT22;2105;52.300;9.182;2022-08-21T12:36:24;27.30;1.00
4183;DHT22;2105;52.300;9.182;2022-08-21T12:38:54;27.10;1.00
4183;DHT22;2105;52.300;9.182;2022-08-21T12:41:27;27.00;1.00
4183;DHT22;2105;52.300;9.182;2022-08-21T12:43:57;27.20;1.00
4183;DHT22;2105;52.300;9.182;2022-08-21T12:46:30;27.20;1.00
4183;DHT22;2105;52.300;9.182;2022-08-21T12:49:02;27.20;1.00
4183;DHT22;2105;52.300;9.182;2022-08-21T12:51:42;27.00;1.00
4183;DHT22;2105;52.300;9.182;2022-08-21T12:54:22;26.70;1.00
4183;DHT22;2105;52.300;9.182;2022-08-21T12:56:58;26.70;1.00
4183;DHT22;2105;52.300;9.182;2022-08-21T12:59:25;26.50;1.00
4183;DHT22;2105;52.300;9.182;2022-08-21T13:01:53;26.60;1.00
4183;DHT22;2105;52.300;9.182;2022-08-21T13:04:24;27.00;1.00
4183;DHT22;2105;52.300;9.182;2022-08-21T13:06:54;27.40;1.00
4183;DHT22;2105;52.300;9.182;2022-08-21T13:09:26;27.40;1.00
4183;DHT22;2105;52.300;9.182;2022-08-21T13:11:55;27.90;1.00
4183;DHT22;2105;52.300;9.182;2022-08-21T13:14:29;28.50;1.00
4183;DHT22;2105;52.300;9.182;2022-08-21T13:16:58;28.50;1.00
4183;DHT22;2105;52.300;9.182;2022-08-21T13:19:26;28.60;1.00
4183;DHT22;2105;52.300;9.182;2022-08-21T13:21:55;28.30;1.00
4183;DHT22;2105;52.300;9.182;2022-08-21T13:24:24;27.80;1.00
4183;DHT22;2105;52.300;9.182;2022-08-21T13:26:51;27.50;1.00
4183;DHT22;2105;52.300;9.182;2022-08-21T13:29:22;27.40;1.00
4183;DHT22;2105;52.300;9.182;2022-08-21T13:31:54;27.50;1.00
4183;DHT22;2105;52.300;9.182;2022-08-21T13:34:22;27.20;1.00
4183;DHT22;2105;52.300;9.182;2022-08-21T13:36:56;27.00;1.00
4183;DHT22;2105;52.300;9.182;2022-08-21T13:39:24;26.90;1.00
4183;DHT22;2105;52.300;9.182;2022-08-21T13:41:54;27.20;1.00
4183;DHT22;2105;52.300;9.182;2022-08-21T13:44:31;27.70;1.00
4183;DHT22;2105;52.300;9.182;2022-08-21T13:47:01;27.90;1.00
4183;DHT22;2105;52.300;9.182;2022-08-21T13:49:33;27.90;1.00
4183;DHT22;2105;52.300;9.182;2022-08-21T13:52:00;28.00;1.00
4183;DHT22;2105;52.300;9.182;2022-08-21T13:54:33;28.10;1.00
4183;DHT22;2105;52.300;9.182;2022-08-21T13:57:00;28.20;1.00
4183;DHT22;2105;52.300;9.182;2022-08-21T13:59:30;28.40;1.00
4183;DHT22;2105;52.300;9.182;2022-08-21T14:01:59;28.50;1.00
4183;DHT22;2105;52.300;9.182;2022-08-21T14:04:33;28.70;1.00
4183;DHT22;2105;52.300;9.182;2022-08-21T14:07:01;28.80;1.00
4183;DHT22;2105;52.300;9.182;2022-08-21T14:09:32;29.00;1.00
4183;DHT22;2105;52.300;9.182;2022-08-21T14:12:13;29.00;1.00
4183;DHT22;2105;52.300;9.182;2022-08-21T14:14:43;28.80;1.00
4183;DHT22;2105;52.300;9.182;2022-08-21T14:17:13;28.60;1.00
4183;DHT22;2105;52.300;9.182;2022-08-21T14:19:42;28.50;1.00
4183;DHT22;2105;52.300;9.182;2022-08-21T14:22:31;28.60;1.00
4183;DHT22;2105;52.300;9.182;2022-08-21T14:25:03;28.70;1.00
4183;DHT22;2105;52.300;9.182;2022-08-21T14:27:31;28.80;1.00
4183;DHT22;2105;52.300;9.182;2022-08-21T14:30:04;28.60;1.00
4183;DHT22;2105;52.300;9.182;2022-08-21T14:32:39;28.20;1.00
4183;DHT22;2105;52.300;9.182;2022-08-21T14:35:07;28.30;1.00
4183;DHT22;2105;52.300;9.182;2022-08-21T14:37:34;28.50;1.00
4183;DHT22;2105;52.300;9.182;2022-08-21T14:40:02;28.30;1.00
4183;DHT22;2105;52.300;9.182;2022-08-21T14:42:29;28.40;1.00
4183;DHT22;2105;52.300;9.182;2022-08-21T14:45:13;28.50;1.00
4183;DHT22;2105;52.300;9.182;2022-08-21T14:47:40;28.40;1.00
4183;DHT22;2105;52.300;9.182;2022-08-21T14:50:08;28.50;1.00
4183;DHT22;2105;52.300;9.182;2022-08-21T14:52:35;28.00;1.00
4183;DHT22;2105;52.300;9.182;2022-08-21T14:55:02;27.90;1.00
4183;DHT22;2105;52.300;9.182;2022-08-21T14:57:30;28.00;1.00
4183;DHT22;2105;52.300;9.182;2022-08-21T14:59:57;28.00;1.00
4183;DHT22;2105;52.300;9.182;2022-08-21T15:02:26;27.60;1.00
4183;DHT22;2105;52.300;9.182;2022-08-21T15:04:52;27.30;1.00
4183;DHT22;2105;52.300;9.182;2022-08-21T15:07:19;27.10;1.00
4183;DHT22;2105;52.300;9.182;2022-08-21T15:09:46;27.30;1.00
4183;DHT22;2105;52.300;9.182;2022-08-21T15:12:13;27.20;1.00
4183;DHT22;2105;52.300;9.182;2022-08-21T15:14:40;27.20;1.00
4183;DHT22;2105;52.300;9.182;2022-08-21T15:17:08;27.20;1.00
4183;DHT22;2105;52.300;9.182;2022-08-21T15:19:37;27.40;1.00
4183;DHT22;2105;52.300;9.182;2022-08-21T15:22:04;27.80;1.00
4183;DHT22;2105;52.300;9.182;2022-08-21T15:24:30;28.00;1.00
4183;DHT22;2105;52.300;9.182;2022-08-21T15:26:59;28.00;1.00
4183;DHT22;2105;52.300;9.182;2022-08-21T15:29:26;27.90;1.00
4183;DHT22;2105;52.300;9.182;2022-08-21T15:31:56;27.90;1.00
4183;DHT22;2105;52.300;9.182;2022-08-21T15:34:23;28.00;1.00
4183;DHT22;2105;52.300;9.182;2022-08-21T15:36:51;28.10;1.00
4183;DHT22;2105;52.300;9.182;2022-08-21T15:39:18;28.10;1.00
4183;DHT22;2105;52.300;9.182;2022-08-21T15:41:45;28.00;1.00
4183;DHT22;2105;52.300;9.182;2022-08-21T15:44:12;28.10;1.00
4183;DHT22;2105;52.300;9.182;2022-08-21T15:46:40;28.00;1.00
4183;DHT22;2105;52.300;9.182;2022-08-21T15:49:10;28.00;1.00
4183;DHT22;2105;52.300;9.182;2022-08-21T15:51:37;28.00;1.00
4183;DHT22;2105;52.300;9.182;2022-08-21T15:54:05;28.00;1.00
4183;DHT22;2105;52.300;9.182;2022-08-21T15:56:34;28.00;1.00
4183;DHT22;2105;52.300;9.182;2022-08-21T15:59:04;28.00;1.00
4183;DHT22;2105;52.300;9.182;2022-08-21T16:01:32;27.80;1.00
4183;DHT22;2105;52.300;9.182;2022-08-21T16:03:59;27.80;1.00
4183;DHT22;2105;52.300;9.182;2022-08-21T16:06:25;27.40;1.00
4183;DHT22;2105;52.300;9.182;2022-08-21T16:08:52;26.90;1.00
4183;DHT22;2105;52.300;9.182;2022-08-21T16:11:20;26.70;1.00
4183;DHT22;2105;52.300;9.182;2022-08-21T16:13:48;26.60;1.00
4183;DHT22;2105;52.300;9.182;2022-08-21T16:16:19;26.60;1.00
4183;DHT22;2105;52.300;9.182;2022-08-21T16:18:46;26.80;1.00
4183;DHT22;2105;52.300;9.182;2022-08-21T16:21:13;26.90;1.00
4183;DHT22;2105;52.300;9.182;2022-08-21T16:23:40;27.00;1.00
4183;DHT22;2105;52.300;9.182;2022-08-21T16:26:09;27.00;1.00
4183;DHT22;2105;52.300;9.182;2022-08-21T16:28:40;27.00;1.00
4183;DHT22;2105;52.300;9.182;2022-08-21T16:31:08;27.10;1.00